createdAt,value
2019-05-26T00:00:18.070Z,97.60
2019-05-26T00:02:46.412Z,97.60
2019-05-26T00:05:14.810Z,97.40
2019-05-26T00:07:43.342Z,97.90
2019-05-26T00:10:12.642Z,97.90
2019-05-26T00:12:41.025Z,98.10
2019-05-26T00:15:09.559Z,98.30
2019-05-26T00:17:38.021Z,98.30
2019-05-26T00:20:07.481Z,98.30
2019-05-26T00:22:35.901Z,98.40
2019-05-26T00:25:06.098Z,98.50
2019-05-26T00:27:34.488Z,98.40
2019-05-26T00:30:03.150Z,98.80
2019-05-26T00:32:31.602Z,98.50
2019-05-26T00:34:59.984Z,98.50
2019-05-26T00:37:28.377Z,98.60
2019-05-26T00:39:56.787Z,98.60
2019-05-26T00:42:26.243Z,98.70
2019-05-26T00:44:54.616Z,98.30
2019-05-26T00:47:23.089Z,98.50
2019-05-26T00:49:51.542Z,98.60
2019-05-26T00:52:19.919Z,98.60
2019-05-26T00:54:48.374Z,98.70
2019-05-26T00:57:16.744Z,98.60
2019-05-26T00:59:45.154Z,98.50
2019-05-26T01:02:13.755Z,98.60
2019-05-26T01:04:42.169Z,98.50
2019-05-26T01:07:10.661Z,98.50
2019-05-26T01:09:39.118Z,98.40
2019-05-26T01:12:07.637Z,98.60
2019-05-26T01:14:36.176Z,98.60
2019-05-26T01:17:04.608Z,98.40
2019-05-26T01:19:33.041Z,98.50
2019-05-26T01:22:01.441Z,98.60
2019-05-26T01:24:29.930Z,98.70
2019-05-26T01:26:58.342Z,98.70
2019-05-26T01:29:26.729Z,98.80
2019-05-26T01:31:55.081Z,98.90
2019-05-26T01:34:23.530Z,98.90
2019-05-26T01:36:51.826Z,99.20
2019-05-26T01:39:20.224Z,99.00
2019-05-26T01:41:48.671Z,99.00
2019-05-26T01:44:17.075Z,99.00
2019-05-26T01:46:45.481Z,99.00
2019-05-26T01:49:13.898Z,98.90
2019-05-26T01:51:42.309Z,98.70
2019-05-26T01:54:10.706Z,98.40
2019-05-26T01:56:39.194Z,98.30
2019-05-26T01:59:07.621Z,98.20
2019-05-26T02:01:36.034Z,98.00
2019-05-26T02:04:04.481Z,97.90
2019-05-26T02:06:32.926Z,97.90
2019-05-26T02:09:03.011Z,97.90
2019-05-26T02:11:31.406Z,98.10
2019-05-26T02:13:59.803Z,98.10
2019-05-26T02:16:28.350Z,97.80
2019-05-26T02:18:56.716Z,97.90
2019-05-26T02:21:25.149Z,97.80
2019-05-26T02:23:53.604Z,97.80
2019-05-26T02:26:22.018Z,97.60
2019-05-26T02:28:50.430Z,97.70
2019-05-26T02:31:18.876Z,97.40
2019-05-26T02:33:47.333Z,97.20
2019-05-26T02:36:15.738Z,97.30
2019-05-26T02:39:00.969Z,97.20
2019-05-26T02:41:14.285Z,96.50
2019-05-26T02:43:42.730Z,96.80
2019-05-26T02:46:11.128Z,97.10
2019-05-26T02:48:39.633Z,97.40
2019-05-26T02:51:08.053Z,97.60
2019-05-26T02:53:36.503Z,97.80
2019-05-26T02:56:04.892Z,97.50
2019-05-26T02:58:33.234Z,97.30
2019-05-26T03:01:01.676Z,97.00
2019-05-26T03:03:30.031Z,96.90
2019-05-26T03:05:58.389Z,96.70
2019-05-26T03:08:26.813Z,96.90
2019-05-26T03:10:55.147Z,96.80
2019-05-26T03:13:23.534Z,96.80
2019-05-26T03:15:52.074Z,96.80
2019-05-26T03:18:20.476Z,96.80
2019-05-26T03:20:49.051Z,96.90
2019-05-26T03:23:17.728Z,96.90
2019-05-26T03:25:46.297Z,96.90
2019-05-26T03:28:14.750Z,97.00
2019-05-26T03:30:43.105Z,96.70
2019-05-26T03:33:11.506Z,96.60
2019-05-26T03:35:39.895Z,96.60
2019-05-26T03:38:08.300Z,96.60
2019-05-26T03:40:36.698Z,96.70
2019-05-26T03:43:05.034Z,96.70
2019-05-26T03:45:42.795Z,96.60
2019-05-26T03:48:11.262Z,96.90
2019-05-26T03:50:39.736Z,97.00
2019-05-26T03:53:08.155Z,96.70
2019-05-26T03:55:36.562Z,96.50
2019-05-26T03:58:04.971Z,96.60
2019-05-26T04:00:33.587Z,96.80
2019-05-26T04:03:02.107Z,96.70
2019-05-26T04:05:30.425Z,97.00
2019-05-26T04:08:04.068Z,97.10
2019-05-26T04:10:28.918Z,97.20
2019-05-26T04:12:57.295Z,97.30
2019-05-26T04:15:25.710Z,97.20
2019-05-26T04:17:54.067Z,97.10
2019-05-26T04:20:22.436Z,97.10
2019-05-26T04:22:50.952Z,96.90
2019-05-26T04:25:19.362Z,96.80
2019-05-26T04:27:47.725Z,96.70
2019-05-26T04:30:16.103Z,96.70
2019-05-26T04:32:44.459Z,96.60
2019-05-26T04:35:12.848Z,96.70
2019-05-26T04:37:41.278Z,96.90
2019-05-26T04:40:25.998Z,96.80
2019-05-26T04:42:39.846Z,96.30
2019-05-26T04:47:35.910Z,96.60
2019-05-26T04:50:05.242Z,96.50
2019-05-26T04:52:33.624Z,96.50
2019-05-26T04:55:02.074Z,96.40
2019-05-26T04:57:30.485Z,96.60
2019-05-26T04:59:58.857Z,96.50
2019-05-26T05:02:27.232Z,96.50
2019-05-26T05:04:55.730Z,96.90
2019-05-26T05:07:28.050Z,96.90
2019-05-26T05:09:54.170Z,96.90
2019-05-26T05:12:22.582Z,96.70
2019-05-26T05:14:51.003Z,96.60
2019-05-26T05:17:19.634Z,96.50
2019-05-26T05:19:48.026Z,96.70
2019-05-26T05:22:16.405Z,96.80
2019-05-26T05:24:44.858Z,96.80
2019-05-26T05:27:13.189Z,96.70
2019-05-26T05:29:41.578Z,96.90
2019-05-26T05:32:10.030Z,96.90
2019-05-26T05:34:38.460Z,97.00
2019-05-26T05:37:06.852Z,97.00
2019-05-26T05:39:35.286Z,96.90
2019-05-26T05:42:03.749Z,96.90
2019-05-26T05:44:32.126Z,96.90
2019-05-26T05:47:00.494Z,96.80
2019-05-26T05:49:28.836Z,96.90
2019-05-26T05:51:57.279Z,97.10
2019-05-26T05:54:25.731Z,96.80
2019-05-26T05:56:55.709Z,96.40
2019-05-26T05:59:24.262Z,96.50
2019-05-26T06:01:52.702Z,96.70
2019-05-26T06:04:21.063Z,96.70
2019-05-26T06:06:49.429Z,96.70
2019-05-26T06:09:17.821Z,96.70
2019-05-26T06:11:46.199Z,96.30
2019-05-26T06:14:14.643Z,96.70
2019-05-26T06:16:42.109Z,96.40
2019-05-26T06:19:10.484Z,96.20
2019-05-26T06:21:39.071Z,96.00
2019-05-26T06:24:07.465Z,95.90
2019-05-26T06:26:35.994Z,95.60
2019-05-26T06:29:04.401Z,96.10
2019-05-26T06:31:32.950Z,96.20
2019-05-26T06:34:01.375Z,95.80
2019-05-26T06:36:30.737Z,95.80
2019-05-26T06:38:59.183Z,95.70
2019-05-26T06:41:33.538Z,95.80
2019-05-26T06:43:57.602Z,95.80
2019-05-26T06:46:26.059Z,95.50
2019-05-26T06:48:54.433Z,95.40
2019-05-26T06:51:22.827Z,95.20
2019-05-26T06:54:03.529Z,95.20
2019-05-26T06:56:31.885Z,95.40
2019-05-26T06:59:02.852Z,95.10
2019-05-26T07:01:43.186Z,95.20
2019-05-26T07:04:11.559Z,95.40
2019-05-26T07:06:39.972Z,95.70
2019-05-26T07:09:08.394Z,96.50
2019-05-26T07:11:53.966Z,96.90
2019-05-26T07:14:06.778Z,97.30
2019-05-26T07:16:38.340Z,98.00
2019-05-26T07:19:05.266Z,97.90
2019-05-26T07:21:33.705Z,97.40
2019-05-26T07:24:02.145Z,98.70
2019-05-26T07:26:30.948Z,99.80
2019-05-26T07:28:59.317Z,99.90
2019-05-26T07:31:27.788Z,99.90
2019-05-26T07:33:56.120Z,99.90
2019-05-26T07:36:24.525Z,99.90
2019-05-26T07:38:52.936Z,99.90
2019-05-26T07:41:21.386Z,99.90
2019-05-26T07:43:49.741Z,99.90
2019-05-26T07:46:18.119Z,99.90
2019-05-26T07:48:45.807Z,99.90
2019-05-26T07:51:14.207Z,99.90
2019-05-26T07:53:42.610Z,99.90
2019-05-26T07:56:11.009Z,99.90
2019-05-26T07:58:39.545Z,99.90
2019-05-26T08:01:07.909Z,99.90
2019-05-26T08:03:36.245Z,99.90
2019-05-26T08:06:04.627Z,99.90
2019-05-26T08:08:33.082Z,99.90
2019-05-26T08:11:01.471Z,99.90
2019-05-26T08:13:29.863Z,99.90
2019-05-26T08:15:58.276Z,99.90
2019-05-26T08:18:26.610Z,99.90
2019-05-26T08:20:54.989Z,99.90
2019-05-26T08:23:23.409Z,99.90
2019-05-26T08:25:51.792Z,99.90
2019-05-26T08:28:20.210Z,99.90
2019-05-26T08:30:48.595Z,99.90
2019-05-26T08:33:16.951Z,99.90
2019-05-26T08:35:45.292Z,99.90
2019-05-26T08:38:13.779Z,99.90
2019-05-26T08:40:42.201Z,99.90
2019-05-26T08:43:10.639Z,99.90
2019-05-26T08:45:39.122Z,99.90
2019-05-26T08:48:07.568Z,99.80
2019-05-26T08:50:35.931Z,99.90
2019-05-26T08:53:04.342Z,99.90
2019-05-26T08:55:32.708Z,99.60
2019-05-26T08:58:01.113Z,99.30
2019-05-26T09:00:29.623Z,99.30
2019-05-26T09:02:57.964Z,98.70
2019-05-26T09:05:26.375Z,98.00
2019-05-26T09:07:54.765Z,97.10
2019-05-26T09:10:23.683Z,97.00
2019-05-26T09:13:00.690Z,95.80
2019-05-26T09:15:22.122Z,96.20
2019-05-26T09:17:50.521Z,95.80
2019-05-26T09:20:18.915Z,95.60
2019-05-26T09:22:47.604Z,95.20
2019-05-26T09:25:15.340Z,94.30
2019-05-26T09:27:43.609Z,93.20
2019-05-26T09:32:39.486Z,92.10
2019-05-26T09:35:07.891Z,92.70
2019-05-26T09:37:37.275Z,92.60
2019-05-26T09:40:09.599Z,92.80
2019-05-26T09:42:38.001Z,91.20
2019-05-26T09:45:08.329Z,91.40
2019-05-26T09:47:36.982Z,91.40
2019-05-26T09:50:06.311Z,90.80
2019-05-26T09:52:34.789Z,91.00
2019-05-26T09:55:03.869Z,89.30
2019-05-26T09:57:31.576Z,90.00
2019-05-26T09:59:59.998Z,90.20
2019-05-26T10:02:28.450Z,90.10
2019-05-26T10:04:56.850Z,90.10
2019-05-26T10:09:52.710Z,88.90
2019-05-26T10:12:21.134Z,88.00
2019-05-26T10:14:49.523Z,88.90
2019-05-26T10:17:17.945Z,87.30
2019-05-26T10:19:46.347Z,86.10
2019-05-26T10:22:14.838Z,85.50
2019-05-26T10:24:43.378Z,84.50
2019-05-26T10:27:11.775Z,85.30
2019-05-26T10:29:40.182Z,83.60
2019-05-26T10:32:08.563Z,84.20
2019-05-26T10:37:04.550Z,83.60
2019-05-26T10:39:32.949Z,82.20
2019-05-26T10:42:01.308Z,81.80
2019-05-26T10:44:29.742Z,80.70
2019-05-26T10:46:58.106Z,81.40
2019-05-26T10:49:26.634Z,82.00
2019-05-26T10:51:55.034Z,83.20
2019-05-26T10:54:23.543Z,82.90
2019-05-26T10:56:51.890Z,82.50
2019-05-26T10:59:20.289Z,80.60
2019-05-26T11:01:48.776Z,80.10
2019-05-26T11:04:17.151Z,79.20
2019-05-26T11:06:45.586Z,79.00
2019-05-26T11:09:13.931Z,78.40
2019-05-26T11:11:42.366Z,78.80
2019-05-26T11:14:11.194Z,77.60
2019-05-26T11:16:39.610Z,78.90
2019-05-26T11:19:07.910Z,77.60
2019-05-26T11:21:36.314Z,79.40
2019-05-26T11:24:04.774Z,79.10
2019-05-26T11:26:33.226Z,79.30
2019-05-26T11:29:01.631Z,80.00
2019-05-26T11:31:30.033Z,79.40
2019-05-26T11:33:58.414Z,78.10
2019-05-26T11:36:26.788Z,77.60
2019-05-26T11:38:55.157Z,77.20
2019-05-26T11:41:23.571Z,76.50
2019-05-26T11:43:52.011Z,75.30
2019-05-26T11:46:20.364Z,74.60
2019-05-26T11:48:48.795Z,74.00
2019-05-26T11:51:17.184Z,75.80
2019-05-26T11:53:45.552Z,77.00
2019-05-26T11:56:14.002Z,76.80
2019-05-26T11:58:42.420Z,75.90
2019-05-26T12:01:10.840Z,76.20
2019-05-26T12:03:39.296Z,75.90
2019-05-26T12:06:07.694Z,75.40
2019-05-26T12:08:36.056Z,76.40
2019-05-26T12:11:04.466Z,76.90
2019-05-26T12:13:34.647Z,77.30
2019-05-26T12:16:02.898Z,77.40
2019-05-26T12:18:31.411Z,77.80
2019-05-26T12:20:59.879Z,76.90
2019-05-26T12:23:27.353Z,77.10
2019-05-26T12:25:55.898Z,76.10
2019-05-26T12:28:24.306Z,74.70
2019-05-26T12:30:52.675Z,75.10
2019-05-26T12:38:16.093Z,75.10
2019-05-26T12:40:44.392Z,74.30
2019-05-26T12:43:12.905Z,75.00
2019-05-26T12:45:41.318Z,75.90
2019-05-26T12:48:09.833Z,76.20
2019-05-26T12:50:38.213Z,75.00
2019-05-26T12:53:06.610Z,75.00
2019-05-26T12:55:35.033Z,73.10
2019-05-26T12:58:03.429Z,72.50
2019-05-26T13:00:47.354Z,71.20
2019-05-26T13:03:02.064Z,71.80
2019-05-26T13:05:30.518Z,73.50
2019-05-26T13:07:59.017Z,74.70
2019-05-26T13:10:27.368Z,75.00
2019-05-26T13:12:55.719Z,75.90
2019-05-26T13:15:24.385Z,76.50
2019-05-26T13:17:52.799Z,76.60
2019-05-26T13:20:21.196Z,77.20
2019-05-26T13:22:49.644Z,76.70
2019-05-26T13:25:19.815Z,77.20
2019-05-26T13:27:48.190Z,76.50
2019-05-26T13:30:24.022Z,75.50
2019-05-26T13:32:52.519Z,76.80
2019-05-26T13:35:20.914Z,76.20
2019-05-26T13:37:49.315Z,76.20
2019-05-26T13:40:17.780Z,75.40
2019-05-26T13:42:46.140Z,73.80
2019-05-26T13:45:22.458Z,72.60
2019-05-26T13:47:44.867Z,73.90
2019-05-26T13:50:13.263Z,73.80
2019-05-26T13:52:40.991Z,73.30
2019-05-26T13:55:11.803Z,73.40
2019-05-26T13:57:40.153Z,70.90
2019-05-26T14:00:10.806Z,72.00
2019-05-26T14:02:39.311Z,73.30
2019-05-26T14:05:07.981Z,72.40
2019-05-26T14:07:36.429Z,73.10
2019-05-26T14:10:05.587Z,76.90
2019-05-26T14:12:33.969Z,73.70
2019-05-26T14:15:02.408Z,72.60
2019-05-26T14:17:30.813Z,72.60
2019-05-26T14:20:20.286Z,73.10
2019-05-26T14:22:48.713Z,72.80
2019-05-26T14:25:18.214Z,72.60
2019-05-26T14:27:46.619Z,72.70
2019-05-26T14:30:15.090Z,73.30
2019-05-26T14:32:43.680Z,71.20
2019-05-26T14:35:11.977Z,71.50
2019-05-26T14:37:40.366Z,71.30
2019-05-26T14:40:08.740Z,69.70
2019-05-26T14:42:37.277Z,69.20
2019-05-26T14:45:06.455Z,69.60
2019-05-26T14:47:34.844Z,69.00
2019-05-26T14:50:05.137Z,68.90
2019-05-26T14:52:33.577Z,70.00
2019-05-26T14:55:02.026Z,71.00
2019-05-26T14:57:31.135Z,71.00
2019-05-26T14:59:59.521Z,70.20
2019-05-26T15:02:27.877Z,69.20
2019-05-26T15:04:56.224Z,69.10
2019-05-26T15:07:24.573Z,68.70
2019-05-26T15:09:53.047Z,69.60
2019-05-26T15:12:21.449Z,70.30
2019-05-26T15:14:49.853Z,71.40
2019-05-26T15:17:18.194Z,72.50
2019-05-26T15:19:46.656Z,70.50
2019-05-26T15:22:15.065Z,69.90
2019-05-26T15:24:43.460Z,69.60
2019-05-26T15:27:11.873Z,67.00
2019-05-26T15:29:40.299Z,67.80
2019-05-26T15:32:08.733Z,71.80
2019-05-26T15:34:37.136Z,72.70
2019-05-26T15:37:05.570Z,73.20
2019-05-26T15:39:33.975Z,72.60
2019-05-26T15:42:02.379Z,73.90
2019-05-26T15:44:30.807Z,73.60
2019-05-26T15:46:59.202Z,73.50
2019-05-26T15:49:27.614Z,73.40
2019-05-26T15:51:55.335Z,72.60
2019-05-26T15:54:23.802Z,72.50
2019-05-26T15:56:52.245Z,73.10
2019-05-26T15:59:20.638Z,72.90
2019-05-26T16:01:48.969Z,72.50
2019-05-26T16:04:17.373Z,72.20
2019-05-26T16:06:45.745Z,71.80
2019-05-26T16:09:15.186Z,72.10
2019-05-26T16:11:43.810Z,72.80
2019-05-26T16:14:12.366Z,72.80
2019-05-26T16:16:41.968Z,69.80
2019-05-26T16:19:10.535Z,71.10
2019-05-26T16:21:38.937Z,72.10
2019-05-26T16:24:07.394Z,72.20
2019-05-26T16:26:35.805Z,72.40
2019-05-26T16:29:04.896Z,71.90
2019-05-26T16:31:33.293Z,72.20
2019-05-26T16:34:01.714Z,72.00
2019-05-26T16:36:30.162Z,70.60
2019-05-26T16:38:58.571Z,70.70
2019-05-26T16:41:27.028Z,71.10
2019-05-26T16:43:55.435Z,70.00
2019-05-26T16:46:23.833Z,71.10
2019-05-26T16:48:54.474Z,71.90
2019-05-26T16:51:22.282Z,70.80
2019-05-26T16:53:50.648Z,70.50
2019-05-26T16:56:18.996Z,71.40
2019-05-26T16:58:47.409Z,71.40
2019-05-26T17:01:15.818Z,71.50
2019-05-26T17:03:44.259Z,70.50
2019-05-26T17:06:12.685Z,71.00
2019-05-26T17:08:41.077Z,73.50
2019-05-26T17:11:12.715Z,76.50
2019-05-26T17:13:41.066Z,78.60
2019-05-26T17:16:09.583Z,78.20
2019-05-26T17:18:38.039Z,77.00
2019-05-26T17:21:06.484Z,77.10
2019-05-26T17:23:34.999Z,77.90
2019-05-26T17:26:03.430Z,78.60
2019-05-26T17:28:32.052Z,77.10
2019-05-26T17:31:00.766Z,77.20
2019-05-26T17:33:29.128Z,77.60
2019-05-26T17:35:57.512Z,78.30
2019-05-26T17:38:25.941Z,78.90
2019-05-26T17:40:54.459Z,77.20
2019-05-26T17:43:22.831Z,76.90
2019-05-26T17:45:51.255Z,75.50
2019-05-26T17:48:19.616Z,70.90
2019-05-26T17:50:48.012Z,71.90
2019-05-26T17:53:16.307Z,71.90
2019-05-26T17:55:44.686Z,72.50
2019-05-26T17:58:13.114Z,70.90
2019-05-26T18:00:41.527Z,71.40
2019-05-26T18:03:09.931Z,72.20
2019-05-26T18:05:38.322Z,72.60
2019-05-26T18:08:06.714Z,72.80
2019-05-26T18:10:35.197Z,73.10
2019-05-26T18:13:03.546Z,72.80
2019-05-26T18:15:31.981Z,72.50
2019-05-26T18:18:00.477Z,73.00
2019-05-26T18:20:28.814Z,73.70
2019-05-26T18:22:57.302Z,73.60
2019-05-26T18:25:25.622Z,74.20
2019-05-26T18:27:54.109Z,74.60
2019-05-26T18:30:22.650Z,75.00
2019-05-26T18:32:51.349Z,75.40
2019-05-26T18:35:19.946Z,75.60
2019-05-26T18:37:52.197Z,75.90
2019-05-26T18:40:19.220Z,76.50
2019-05-26T18:42:47.831Z,77.10
2019-05-26T18:45:16.763Z,77.60
2019-05-26T18:48:01.421Z,78.20
2019-05-26T18:50:16.331Z,78.40
2019-05-26T18:52:45.053Z,79.20
2019-05-26T18:55:13.689Z,79.80
2019-05-26T18:57:42.312Z,80.20
2019-05-26T19:00:11.628Z,80.60
2019-05-26T19:02:40.261Z,80.60
2019-05-26T19:05:09.318Z,80.50
2019-05-26T19:07:38.192Z,81.50
2019-05-26T19:10:08.150Z,82.20
2019-05-26T19:12:56.349Z,82.00
2019-05-26T19:15:24.968Z,82.10
2019-05-26T19:17:53.508Z,82.20
2019-05-26T19:20:22.490Z,82.60
2019-05-26T19:22:53.445Z,82.40
2019-05-26T19:25:21.971Z,82.80
2019-05-26T19:27:50.679Z,82.80
2019-05-26T19:30:19.188Z,83.00
2019-05-26T19:32:47.686Z,83.20
2019-05-26T19:35:16.215Z,83.80
2019-05-26T19:37:45.987Z,83.90
2019-05-26T19:40:15.369Z,84.30
2019-05-26T19:42:44.899Z,84.80
2019-05-26T19:45:14.266Z,85.00
2019-05-26T19:47:43.619Z,85.00
2019-05-26T19:50:12.695Z,85.20
2019-05-26T19:52:41.652Z,85.40
2019-05-26T19:55:10.688Z,85.90
2019-05-26T19:57:39.815Z,86.10
2019-05-26T20:00:13.519Z,86.70
2019-05-26T20:02:44.031Z,87.30
2019-05-26T20:05:12.968Z,87.70
2019-05-26T20:07:42.013Z,88.20
2019-05-26T20:10:11.014Z,88.70
2019-05-26T20:12:39.948Z,89.20
2019-05-26T20:15:09.138Z,89.70
2019-05-26T20:17:38.738Z,90.10
2019-05-26T20:20:12.169Z,90.30
2019-05-26T20:22:41.513Z,90.60
2019-05-26T20:25:11.640Z,90.90
2019-05-26T20:27:40.631Z,91.20
2019-05-26T20:30:10.136Z,91.50
2019-05-26T20:32:39.509Z,91.70
2019-05-26T20:35:09.103Z,98.10
2019-05-26T20:37:38.567Z,94.60
2019-05-26T20:40:08.191Z,93.50
2019-05-26T20:42:36.621Z,93.10
2019-05-26T20:45:07.320Z,93.00
2019-05-26T20:47:35.741Z,92.90
2019-05-26T20:50:08.359Z,93.00
2019-05-26T20:52:36.808Z,93.20
2019-05-26T20:55:07.716Z,93.40
2019-05-26T20:57:36.131Z,93.50
2019-05-26T21:00:10.032Z,93.70
2019-05-26T21:02:41.061Z,94.00
2019-05-26T21:05:22.386Z,94.30
2019-05-26T21:07:50.811Z,96.30
2019-05-26T21:10:19.259Z,96.60
2019-05-26T21:12:47.668Z,96.50
2019-05-26T21:15:16.043Z,96.20
2019-05-26T21:17:44.471Z,95.90
2019-05-26T21:20:12.834Z,95.90
2019-05-26T21:22:41.305Z,95.80
2019-05-26T21:25:09.764Z,95.70
2019-05-26T21:27:38.165Z,95.60
2019-05-26T21:30:06.972Z,95.60
2019-05-26T21:32:35.460Z,95.60
2019-05-26T21:35:05.594Z,95.50
2019-05-26T21:37:33.945Z,95.30
2019-05-26T21:40:02.436Z,95.40
2019-05-26T21:42:30.812Z,95.40
2019-05-26T21:44:59.184Z,95.40
2019-05-26T21:47:27.738Z,95.50
2019-05-26T21:49:56.150Z,95.60
2019-05-26T21:52:24.530Z,95.60
2019-05-26T21:54:53.083Z,95.60
2019-05-26T21:57:21.661Z,95.80
2019-05-26T21:59:50.030Z,95.70
2019-05-26T22:02:18.483Z,95.80
2019-05-26T22:04:46.877Z,95.80
2019-05-26T22:07:15.331Z,95.70
2019-05-26T22:09:43.749Z,95.80
2019-05-26T22:12:12.140Z,95.80
2019-05-26T22:14:40.505Z,95.80
2019-05-26T22:17:08.913Z,96.20
2019-05-26T22:19:37.384Z,95.70
2019-05-26T22:22:05.700Z,95.70
2019-05-26T22:24:34.088Z,95.60
2019-05-26T22:27:02.483Z,95.50
2019-05-26T22:29:30.848Z,95.60
2019-05-26T22:31:59.218Z,95.80
2019-05-26T22:34:27.582Z,95.90
2019-05-26T22:36:56.016Z,96.00
2019-05-26T22:39:24.414Z,96.10
2019-05-26T22:41:52.864Z,96.30
2019-05-26T22:44:21.297Z,96.40
2019-05-26T22:46:49.622Z,96.40
2019-05-26T22:49:18.014Z,96.30
2019-05-26T22:51:46.423Z,96.40
2019-05-26T22:54:14.829Z,96.50
2019-05-26T22:56:43.378Z,96.40
2019-05-26T22:59:11.756Z,96.30
2019-05-26T23:01:40.178Z,96.40
2019-05-26T23:04:08.632Z,96.40
2019-05-26T23:06:37.115Z,96.20
2019-05-26T23:09:06.383Z,96.20
2019-05-26T23:11:34.893Z,96.10
2019-05-26T23:14:03.387Z,96.10
2019-05-26T23:16:32.841Z,96.10
2019-05-26T23:19:01.209Z,96.10
2019-05-26T23:21:29.625Z,96.00
2019-05-26T23:23:58.042Z,95.90
2019-05-26T23:26:26.351Z,95.80
2019-05-26T23:28:54.863Z,95.80
2019-05-26T23:31:23.314Z,95.80
2019-05-26T23:33:51.702Z,95.70
2019-05-26T23:36:20.059Z,95.50
2019-05-26T23:38:48.474Z,95.30
2019-05-26T23:41:16.906Z,95.20
2019-05-26T23:43:45.307Z,95.10
2019-05-26T23:46:13.882Z,94.90
2019-05-26T23:48:42.262Z,94.90
2019-05-26T23:51:10.635Z,94.90
2019-05-26T23:53:39.139Z,94.70
2019-05-26T23:56:07.489Z,94.70
2019-05-26T23:58:35.813Z,94.60
